sensor_id;sensor_type;location;lat;lon;timestamp;temperature;humidity
17726;DHT22;8983;53.156;17.960;2023-05-21T00:00:15;17.50;99.90
17726;DHT22;8983;53.156;17.960;2023-05-21T00:02:43;17.50;99.90
17726;DHT22;8983;53.156;17.960;2023-05-21T00:05:12;17.40;99.90
17726;DHT22;8983;53.156;17.960;2023-05-21T00:07:43;17.30;99.90
17726;DHT22;8983;53.156;17.960;2023-05-21T00:10:11;17.30;99.90
17726;DHT22;8983;53.156;17.960;2023-05-21T00:12:40;17.30;99.90
17726;DHT22;8983;53.156;17.960;2023-05-21T00:15:09;17.30;99.90
17726;DHT22;8983;53.156;17.960;2023-05-21T00:17:37;17.20;99.90
17726;DHT22;8983;53.156;17.960;2023-05-21T00:20:06;17.20;99.90
17726;DHT22;8983;53.156;17.960;2023-05-21T00:22:35;17.20;99.90
17726;DHT22;8983;53.156;17.960;2023-05-21T00:25:05;17.10;99.90
17726;DHT22;8983;53.156;17.960;2023-05-21T00:27:33;17.10;99.90
17726;DHT22;8983;53.156;17.960;2023-05-21T00:30:02;17.10;99.90
17726;DHT22;8983;53.156;17.960;2023-05-21T00:32:31;17.00;99.90
17726;DHT22;8983;53.156;17.960;2023-05-21T00:34:59;17.00;99.90
17726;DHT22;8983;53.156;17.960;2023-05-21T00:37:27;17.00;99.90
17726;DHT22;8983;53.156;17.960;2023-05-21T00:39:58;16.90;99.90
17726;DHT22;8983;53.156;17.960;2023-05-21T00:42:28;16.90;99.90
17726;DHT22;8983;53.156;17.960;2023-05-21T00:44:56;16.90;99.90
17726;DHT22;8983;53.156;17.960;2023-05-21T00:47:25;16.90;99.90
17726;DHT22;8983;53.156;17.960;2023-05-21T00:49:55;16.80;99.90
17726;DHT22;8983;53.156;17.960;2023-05-21T00:52:23;16.80;99.90
17726;DHT22;8983;53.156;17.960;2023-05-21T00:54:52;16.80;99.90
17726;DHT22;8983;53.156;17.960;2023-05-21T00:57:24;16.70;99.90
17726;DHT22;8983;53.156;17.960;2023-05-21T00:59:55;16.70;99.90
17726;DHT22;8983;53.156;17.960;2023-05-21T01:02:23;16.70;99.90
17726;DHT22;8983;53.156;17.960;2023-05-21T01:04:53;16.60;99.90
17726;DHT22;8983;53.156;17.960;2023-05-21T01:07:21;16.60;99.90
17726;DHT22;8983;53.156;17.960;2023-05-21T01:09:50;16.60;99.90
17726;DHT22;8983;53.156;17.960;2023-05-21T01:12:20;16.60;99.90
17726;DHT22;8983;53.156;17.960;2023-05-21T01:14:50;16.60;99.90
17726;DHT22;8983;53.156;17.960;2023-05-21T01:17:20;16.50;99.90
17726;DHT22;8983;53.156;17.960;2023-05-21T01:19:51;16.50;99.90
17726;DHT22;8983;53.156;17.960;2023-05-21T01:22:20;16.50;99.90
17726;DHT22;8983;53.156;17.960;2023-05-21T01:24:53;16.40;99.90
17726;DHT22;8983;53.156;17.960;2023-05-21T01:27:21;16.40;99.90
17726;DHT22;8983;53.156;17.960;2023-05-21T01:29:49;16.40;99.90
17726;DHT22;8983;53.156;17.960;2023-05-21T01:32:23;16.30;99.90
17726;DHT22;8983;53.156;17.960;2023-05-21T01:34:58;16.40;99.90
17726;DHT22;8983;53.156;17.960;2023-05-21T01:37:31;16.40;99.90
17726;DHT22;8983;53.156;17.960;2023-05-21T01:40:10;16.20;99.90
17726;DHT22;8983;53.156;17.960;2023-05-21T01:42:42;16.20;99.90
17726;DHT22;8983;53.156;17.960;2023-05-21T01:45:12;16.20;99.90
17726;DHT22;8983;53.156;17.960;2023-05-21T01:47:43;16.20;99.90
17726;DHT22;8983;53.156;17.960;2023-05-21T01:50:12;16.20;99.90
17726;DHT22;8983;53.156;17.960;2023-05-21T01:52:48;16.10;99.90
17726;DHT22;8983;53.156;17.960;2023-05-21T01:55:18;16.10;99.90
17726;DHT22;8983;53.156;17.960;2023-05-21T01:57:50;16.10;99.90
17726;DHT22;8983;53.156;17.960;2023-05-21T02:00:20;16.10;99.90
17726;DHT22;8983;53.156;17.960;2023-05-21T02:02:48;16.00;99.90
17726;DHT22;8983;53.156;17.960;2023-05-21T02:05:17;16.00;99.90
17726;DHT22;8983;53.156;17.960;2023-05-21T02:07:46;15.90;99.90
17726;DHT22;8983;53.156;17.960;2023-05-21T02:10:15;15.90;99.90
17726;DHT22;8983;53.156;17.960;2023-05-21T02:12:44;15.90;99.90
17726;DHT22;8983;53.156;17.960;2023-05-21T02:15:13;15.80;99.90
17726;DHT22;8983;53.156;17.960;2023-05-21T02:17:43;15.80;99.90
17726;DHT22;8983;53.156;17.960;2023-05-21T02:20:12;15.80;99.90
17726;DHT22;8983;53.156;17.960;2023-05-21T02:22:42;15.80;99.90
17726;DHT22;8983;53.156;17.960;2023-05-21T02:25:12;15.70;99.90
17726;DHT22;8983;53.156;17.960;2023-05-21T02:27:42;15.80;99.90
17726;DHT22;8983;53.156;17.960;2023-05-21T02:30:14;15.70;99.90
17726;DHT22;8983;53.156;17.960;2023-05-21T02:32:42;15.70;99.90
17726;DHT22;8983;53.156;17.960;2023-05-21T02:35:11;15.60;99.90
17726;DHT22;8983;53.156;17.960;2023-05-21T02:37:40;15.70;99.90
17726;DHT22;8983;53.156;17.960;2023-05-21T02:40:11;15.50;99.90
17726;DHT22;8983;53.156;17.960;2023-05-21T02:42:39;15.50;99.90
17726;DHT22;8983;53.156;17.960;2023-05-21T02:45:11;15.60;99.90
17726;DHT22;8983;53.156;17.960;2023-05-21T02:47:39;15.50;99.90
17726;DHT22;8983;53.156;17.960;2023-05-21T02:50:08;15.50;99.90
17726;DHT22;8983;53.156;17.960;2023-05-21T02:52:36;15.40;99.90
17726;DHT22;8983;53.156;17.960;2023-05-21T02:55:05;15.40;99.90
17726;DHT22;8983;53.156;17.960;2023-05-21T02:57:33;15.40;99.90
17726;DHT22;8983;53.156;17.960;2023-05-21T03:00:02;15.40;99.90
17726;DHT22;8983;53.156;17.960;2023-05-21T03:02:33;15.30;99.90
17726;DHT22;8983;53.156;17.960;2023-05-21T03:05:01;15.30;99.90
17726;DHT22;8983;53.156;17.960;2023-05-21T03:07:29;15.30;99.90
17726;DHT22;8983;53.156;17.960;2023-05-21T03:09:58;15.30;99.90
17726;DHT22;8983;53.156;17.960;2023-05-21T03:12:26;15.30;99.90
17726;DHT22;8983;53.156;17.960;2023-05-21T03:14:54;15.30;99.90
17726;DHT22;8983;53.156;17.960;2023-05-21T03:17:22;15.30;99.90
17726;DHT22;8983;53.156;17.960;2023-05-21T03:19:52;15.30;99.90
17726;DHT22;8983;53.156;17.960;2023-05-21T03:22:20;15.30;99.90
17726;DHT22;8983;53.156;17.960;2023-05-21T03:24:49;15.30;99.90
17726;DHT22;8983;53.156;17.960;2023-05-21T03:27:17;15.30;99.90
17726;DHT22;8983;53.156;17.960;2023-05-21T03:29:45;15.30;99.90
17726;DHT22;8983;53.156;17.960;2023-05-21T03:32:13;15.30;99.90
17726;DHT22;8983;53.156;17.960;2023-05-21T03:34:42;15.30;99.90
17726;DHT22;8983;53.156;17.960;2023-05-21T03:37:11;15.30;99.90
17726;DHT22;8983;53.156;17.960;2023-05-21T03:39:39;15.30;99.90
17726;DHT22;8983;53.156;17.960;2023-05-21T03:42:08;15.30;99.90
17726;DHT22;8983;53.156;17.960;2023-05-21T03:44:37;15.40;99.90
17726;DHT22;8983;53.156;17.960;2023-05-21T03:47:05;15.40;99.90
17726;DHT22;8983;53.156;17.960;2023-05-21T03:49:33;15.40;99.90
17726;DHT22;8983;53.156;17.960;2023-05-21T03:52:01;15.40;99.90
17726;DHT22;8983;53.156;17.960;2023-05-21T03:54:31;15.40;99.90
17726;DHT22;8983;53.156;17.960;2023-05-21T03:56:59;15.50;99.90
17726;DHT22;8983;53.156;17.960;2023-05-21T03:59:27;15.50;99.90
17726;DHT22;8983;53.156;17.960;2023-05-21T04:01:55;15.50;99.90
17726;DHT22;8983;53.156;17.960;2023-05-21T04:04:24;15.50;99.90
17726;DHT22;8983;53.156;17.960;2023-05-21T04:06:52;15.60;99.90
17726;DHT22;8983;53.156;17.960;2023-05-21T04:09:21;15.60;99.90
17726;DHT22;8983;53.156;17.960;2023-05-21T04:11:50;15.60;99.90
17726;DHT22;8983;53.156;17.960;2023-05-21T04:14:19;15.60;99.90
17726;DHT22;8983;53.156;17.960;2023-05-21T04:16:47;15.70;99.90
17726;DHT22;8983;53.156;17.960;2023-05-21T04:19:15;15.70;99.90
17726;DHT22;8983;53.156;17.960;2023-05-21T04:21:44;15.70;99.90
17726;DHT22;8983;53.156;17.960;2023-05-21T04:24:12;15.70;99.90
17726;DHT22;8983;53.156;17.960;2023-05-21T04:26:40;15.80;99.90
17726;DHT22;8983;53.156;17.960;2023-05-21T04:29:09;15.80;99.90
17726;DHT22;8983;53.156;17.960;2023-05-21T04:31:37;15.90;99.90
17726;DHT22;8983;53.156;17.960;2023-05-21T04:34:05;15.90;99.90
17726;DHT22;8983;53.156;17.960;2023-05-21T04:36:34;16.00;99.90
17726;DHT22;8983;53.156;17.960;2023-05-21T04:39:02;16.00;99.90
17726;DHT22;8983;53.156;17.960;2023-05-21T04:41:32;16.10;99.90
17726;DHT22;8983;53.156;17.960;2023-05-21T04:44:00;16.10;99.90
17726;DHT22;8983;53.156;17.960;2023-05-21T04:46:30;16.20;99.90
17726;DHT22;8983;53.156;17.960;2023-05-21T04:48:58;16.20;99.90
17726;DHT22;8983;53.156;17.960;2023-05-21T04:51:28;16.30;99.90
17726;DHT22;8983;53.156;17.960;2023-05-21T04:53:57;16.30;99.90
17726;DHT22;8983;53.156;17.960;2023-05-21T04:56:25;16.30;99.90
17726;DHT22;8983;53.156;17.960;2023-05-21T04:58:53;16.40;99.90
17726;DHT22;8983;53.156;17.960;2023-05-21T05:01:24;16.40;99.90
17726;DHT22;8983;53.156;17.960;2023-05-21T05:03:56;16.50;99.90
17726;DHT22;8983;53.156;17.960;2023-05-21T05:06:25;16.60;99.90
17726;DHT22;8983;53.156;17.960;2023-05-21T05:08:53;16.60;99.90
17726;DHT22;8983;53.156;17.960;2023-05-21T05:11:21;16.70;99.90
17726;DHT22;8983;53.156;17.960;2023-05-21T05:13:50;16.70;99.90
17726;DHT22;8983;53.156;17.960;2023-05-21T05:16:18;16.80;99.90
17726;DHT22;8983;53.156;17.960;2023-05-21T05:18:51;16.80;99.90
17726;DHT22;8983;53.156;17.960;2023-05-21T05:21:21;16.90;99.90
17726;DHT22;8983;53.156;17.960;2023-05-21T05:23:50;16.90;99.90
17726;DHT22;8983;53.156;17.960;2023-05-21T05:26:18;16.90;99.90
17726;DHT22;8983;53.156;17.960;2023-05-21T05:28:47;17.00;99.90
17726;DHT22;8983;53.156;17.960;2023-05-21T05:31:15;17.10;99.90
17726;DHT22;8983;53.156;17.960;2023-05-21T05:33:43;17.10;99.90
17726;DHT22;8983;53.156;17.960;2023-05-21T05:36:12;17.20;99.90
17726;DHT22;8983;53.156;17.960;2023-05-21T05:38:41;17.20;99.90
17726;DHT22;8983;53.156;17.960;2023-05-21T05:41:09;17.30;99.90
17726;DHT22;8983;53.156;17.960;2023-05-21T05:43:37;17.40;99.90
17726;DHT22;8983;53.156;17.960;2023-05-21T05:46:05;17.50;99.90
17726;DHT22;8983;53.156;17.960;2023-05-21T05:48:33;17.50;99.90
17726;DHT22;8983;53.156;17.960;2023-05-21T05:51:02;17.50;99.90
17726;DHT22;8983;53.156;17.960;2023-05-21T05:53:30;17.60;99.90
17726;DHT22;8983;53.156;17.960;2023-05-21T05:56:00;17.60;99.90
17726;DHT22;8983;53.156;17.960;2023-05-21T05:58:28;17.70;99.90
17726;DHT22;8983;53.156;17.960;2023-05-21T06:00:57;17.70;99.90
17726;DHT22;8983;53.156;17.960;2023-05-21T06:03:26;17.80;99.90
17726;DHT22;8983;53.156;17.960;2023-05-21T06:05:54;17.80;99.90
17726;DHT22;8983;53.156;17.960;2023-05-21T06:08:22;17.80;99.90
17726;DHT22;8983;53.156;17.960;2023-05-21T06:10:51;17.90;99.90
17726;DHT22;8983;53.156;17.960;2023-05-21T06:13:20;18.00;99.90
17726;DHT22;8983;53.156;17.960;2023-05-21T06:15:48;18.00;99.90
17726;DHT22;8983;53.156;17.960;2023-05-21T06:18:17;18.10;99.90
17726;DHT22;8983;53.156;17.960;2023-05-21T06:20:45;18.10;99.90
17726;DHT22;8983;53.156;17.960;2023-05-21T06:23:13;18.10;99.90
17726;DHT22;8983;53.156;17.960;2023-05-21T06:25:41;18.30;99.90
17726;DHT22;8983;53.156;17.960;2023-05-21T06:28:10;18.30;99.90
17726;DHT22;8983;53.156;17.960;2023-05-21T06:30:39;18.30;99.90
17726;DHT22;8983;53.156;17.960;2023-05-21T06:33:08;18.40;99.90
17726;DHT22;8983;53.156;17.960;2023-05-21T06:35:37;18.40;99.90
17726;DHT22;8983;53.156;17.960;2023-05-21T06:38:06;18.50;99.90
17726;DHT22;8983;53.156;17.960;2023-05-21T06:40:34;18.50;99.90
17726;DHT22;8983;53.156;17.960;2023-05-21T06:43:02;18.60;99.90
17726;DHT22;8983;53.156;17.960;2023-05-21T06:45:31;18.70;99.90
17726;DHT22;8983;53.156;17.960;2023-05-21T06:48:00;18.70;99.90
17726;DHT22;8983;53.156;17.960;2023-05-21T06:50:28;18.80;99.90
17726;DHT22;8983;53.156;17.960;2023-05-21T06:52:57;18.80;99.90
17726;DHT22;8983;53.156;17.960;2023-05-21T06:55:25;18.90;99.90
17726;DHT22;8983;53.156;17.960;2023-05-21T06:57:53;18.90;99.90
17726;DHT22;8983;53.156;17.960;2023-05-21T07:00:21;19.00;99.90
17726;DHT22;8983;53.156;17.960;2023-05-21T07:02:49;19.00;99.90
17726;DHT22;8983;53.156;17.960;2023-05-21T07:05:19;19.10;99.90
17726;DHT22;8983;53.156;17.960;2023-05-21T07:07:47;19.20;99.90
17726;DHT22;8983;53.156;17.960;2023-05-21T07:10:15;19.20;99.90
17726;DHT22;8983;53.156;17.960;2023-05-21T07:12:43;19.30;99.90
17726;DHT22;8983;53.156;17.960;2023-05-21T07:15:11;19.30;99.90
17726;DHT22;8983;53.156;17.960;2023-05-21T07:17:40;19.40;99.90
17726;DHT22;8983;53.156;17.960;2023-05-21T07:20:09;19.40;99.90
17726;DHT22;8983;53.156;17.960;2023-05-21T07:22:39;19.50;99.90
17726;DHT22;8983;53.156;17.960;2023-05-21T07:25:08;19.60;99.90
17726;DHT22;8983;53.156;17.960;2023-05-21T07:27:37;19.60;99.90
17726;DHT22;8983;53.156;17.960;2023-05-21T07:30:06;19.60;99.90
17726;DHT22;8983;53.156;17.960;2023-05-21T07:32:34;19.70;99.90
17726;DHT22;8983;53.156;17.960;2023-05-21T07:35:03;19.80;99.90
17726;DHT22;8983;53.156;17.960;2023-05-21T07:37:31;19.80;99.90
17726;DHT22;8983;53.156;17.960;2023-05-21T07:40:01;19.80;99.90
17726;DHT22;8983;53.156;17.960;2023-05-21T07:42:32;19.90;99.90
17726;DHT22;8983;53.156;17.960;2023-05-21T07:45:00;20.00;99.90
17726;DHT22;8983;53.156;17.960;2023-05-21T07:47:28;20.00;99.90
17726;DHT22;8983;53.156;17.960;2023-05-21T07:49:56;20.10;99.90
17726;DHT22;8983;53.156;17.960;2023-05-21T07:52:25;20.20;99.90
17726;DHT22;8983;53.156;17.960;2023-05-21T07:54:53;20.30;99.90
17726;DHT22;8983;53.156;17.960;2023-05-21T07:57:23;20.20;99.90
17726;DHT22;8983;53.156;17.960;2023-05-21T07:59:51;20.30;99.90
17726;DHT22;8983;53.156;17.960;2023-05-21T08:02:19;20.30;99.90
17726;DHT22;8983;53.156;17.960;2023-05-21T08:04:47;20.40;99.90
17726;DHT22;8983;53.156;17.960;2023-05-21T08:07:16;20.40;99.90
17726;DHT22;8983;53.156;17.960;2023-05-21T08:09:45;20.50;99.90
17726;DHT22;8983;53.156;17.960;2023-05-21T08:12:13;20.60;99.90
17726;DHT22;8983;53.156;17.960;2023-05-21T08:14:43;20.60;99.90
17726;DHT22;8983;53.156;17.960;2023-05-21T08:17:11;20.70;99.90
17726;DHT22;8983;53.156;17.960;2023-05-21T08:19:39;20.70;99.90
17726;DHT22;8983;53.156;17.960;2023-05-21T08:22:07;20.80;99.90
17726;DHT22;8983;53.156;17.960;2023-05-21T08:24:36;20.80;99.20
17726;DHT22;8983;53.156;17.960;2023-05-21T08:27:04;20.90;98.70
17726;DHT22;8983;53.156;17.960;2023-05-21T08:29:33;21.00;98.40
17726;DHT22;8983;53.156;17.960;2023-05-21T08:32:03;21.00;98.20
17726;DHT22;8983;53.156;17.960;2023-05-21T08:34:31;21.10;97.90
17726;DHT22;8983;53.156;17.960;2023-05-21T08:37:00;21.20;97.90
17726;DHT22;8983;53.156;17.960;2023-05-21T08:39:28;21.20;97.50
17726;DHT22;8983;53.156;17.960;2023-05-21T08:42:03;21.30;97.00
17726;DHT22;8983;53.156;17.960;2023-05-21T08:44:37;21.30;96.60
17726;DHT22;8983;53.156;17.960;2023-05-21T08:47:10;21.40;96.20
17726;DHT22;8983;53.156;17.960;2023-05-21T08:49:39;21.50;95.70
17726;DHT22;8983;53.156;17.960;2023-05-21T08:52:09;21.60;95.60
17726;DHT22;8983;53.156;17.960;2023-05-21T08:54:38;21.70;95.30
17726;DHT22;8983;53.156;17.960;2023-05-21T08:57:07;21.70;95.20
17726;DHT22;8983;53.156;17.960;2023-05-21T08:59:36;21.80;95.00
17726;DHT22;8983;53.156;17.960;2023-05-21T09:02:11;21.90;94.70
17726;DHT22;8983;53.156;17.960;2023-05-21T09:04:40;21.90;94.50
17726;DHT22;8983;53.156;17.960;2023-05-21T09:07:09;22.00;94.20
17726;DHT22;8983;53.156;17.960;2023-05-21T09:09:40;22.10;94.10
17726;DHT22;8983;53.156;17.960;2023-05-21T09:12:09;22.10;93.30
17726;DHT22;8983;53.156;17.960;2023-05-21T09:14:38;22.20;93.40
17726;DHT22;8983;53.156;17.960;2023-05-21T09:17:06;22.30;93.70
17726;DHT22;8983;53.156;17.960;2023-05-21T09:19:36;22.30;93.60
17726;DHT22;8983;53.156;17.960;2023-05-21T09:22:04;22.40;93.60
17726;DHT22;8983;53.156;17.960;2023-05-21T09:24:32;22.50;93.30
17726;DHT22;8983;53.156;17.960;2023-05-21T09:27:05;22.50;93.00
17726;DHT22;8983;53.156;17.960;2023-05-21T09:29:33;22.60;92.80
17726;DHT22;8983;53.156;17.960;2023-05-21T09:32:05;22.60;92.70
17726;DHT22;8983;53.156;17.960;2023-05-21T09:34:36;22.60;92.10
17726;DHT22;8983;53.156;17.960;2023-05-21T09:37:05;22.70;92.00
17726;DHT22;8983;53.156;17.960;2023-05-21T09:39:52;22.70;91.90
17726;DHT22;8983;53.156;17.960;2023-05-21T09:42:20;22.70;91.50
17726;DHT22;8983;53.156;17.960;2023-05-21T09:44:49;22.80;91.70
17726;DHT22;8983;53.156;17.960;2023-05-21T09:47:20;22.80;91.30
17726;DHT22;8983;53.156;17.960;2023-05-21T09:49:49;22.90;90.80
17726;DHT22;8983;53.156;17.960;2023-05-21T09:52:24;23.00;90.50
17726;DHT22;8983;53.156;17.960;2023-05-21T09:54:54;23.00;90.00
17726;DHT22;8983;53.156;17.960;2023-05-21T09:57:25;23.00;89.10
17726;DHT22;8983;53.156;17.960;2023-05-21T09:59:53;23.10;89.10
17726;DHT22;8983;53.156;17.960;2023-05-21T10:02:22;23.20;87.50
17726;DHT22;8983;53.156;17.960;2023-05-21T10:04:54;23.20;86.60
17726;DHT22;8983;53.156;17.960;2023-05-21T10:07:24;23.20;86.30
17726;DHT22;8983;53.156;17.960;2023-05-21T10:09:54;23.30;85.70
17726;DHT22;8983;53.156;17.960;2023-05-21T10:12:23;23.30;85.00
17726;DHT22;8983;53.156;17.960;2023-05-21T10:14:58;23.40;84.50
17726;DHT22;8983;53.156;17.960;2023-05-21T10:17:28;23.40;84.10
17726;DHT22;8983;53.156;17.960;2023-05-21T10:19:58;23.50;83.90
17726;DHT22;8983;53.156;17.960;2023-05-21T10:22:27;23.60;83.50
17726;DHT22;8983;53.156;17.960;2023-05-21T10:24:56;23.60;83.10
17726;DHT22;8983;53.156;17.960;2023-05-21T10:27:27;23.70;82.70
17726;DHT22;8983;53.156;17.960;2023-05-21T10:29:58;23.80;81.80
17726;DHT22;8983;53.156;17.960;2023-05-21T10:32:27;23.80;81.00
17726;DHT22;8983;53.156;17.960;2023-05-21T10:34:57;23.90;80.40
17726;DHT22;8983;53.156;17.960;2023-05-21T10:37:27;24.00;79.90
17726;DHT22;8983;53.156;17.960;2023-05-21T10:39:56;24.00;79.80
17726;DHT22;8983;53.156;17.960;2023-05-21T10:45:31;24.20;79.60
17726;DHT22;8983;53.156;17.960;2023-05-21T10:48:11;24.40;79.10
17726;DHT22;8983;53.156;17.960;2023-05-21T10:51:00;24.50;78.60
17726;DHT22;8983;53.156;17.960;2023-05-21T10:53:44;24.60;78.30
17726;DHT22;8983;53.156;17.960;2023-05-21T10:56:21;24.70;77.90
17726;DHT22;8983;53.156;17.960;2023-05-21T10:59:03;24.90;77.20
17726;DHT22;8983;53.156;17.960;2023-05-21T11:01:36;25.30;76.20
17726;DHT22;8983;53.156;17.960;2023-05-21T11:04:05;25.60;75.70
17726;DHT22;8983;53.156;17.960;2023-05-21T11:06:35;26.10;74.80
17726;DHT22;8983;53.156;17.960;2023-05-21T11:09:11;26.50;73.40
17726;DHT22;8983;53.156;17.960;2023-05-21T11:11:40;26.90;71.70
17726;DHT22;8983;53.156;17.960;2023-05-21T11:14:31;27.10;70.50
17726;DHT22;8983;53.156;17.960;2023-05-21T11:17:02;27.30;68.60
17726;DHT22;8983;53.156;17.960;2023-05-21T11:19:38;27.40;68.10
17726;DHT22;8983;53.156;17.960;2023-05-21T11:22:19;27.50;66.70
17726;DHT22;8983;53.156;17.960;2023-05-21T11:24:48;27.70;66.30
17726;DHT22;8983;53.156;17.960;2023-05-21T11:27:30;27.90;66.10
17726;DHT22;8983;53.156;17.960;2023-05-21T11:30:00;28.00;65.20
17726;DHT22;8983;53.156;17.960;2023-05-21T11:32:29;28.00;64.70
17726;DHT22;8983;53.156;17.960;2023-05-21T11:34:59;28.20;64.10
17726;DHT22;8983;53.156;17.960;2023-05-21T11:37:30;28.40;63.30
17726;DHT22;8983;53.156;17.960;2023-05-21T11:40:17;28.50;62.60
17726;DHT22;8983;53.156;17.960;2023-05-21T11:42:50;28.80;61.70
17726;DHT22;8983;53.156;17.960;2023-05-21T11:45:19;28.90;61.20
17726;DHT22;8983;53.156;17.960;2023-05-21T11:47:48;29.00;60.90
17726;DHT22;8983;53.156;17.960;2023-05-21T11:50:18;29.00;60.60
17726;DHT22;8983;53.156;17.960;2023-05-21T11:52:48;29.00;59.90
17726;DHT22;8983;53.156;17.960;2023-05-21T11:55:21;28.90;59.50
17726;DHT22;8983;53.156;17.960;2023-05-21T11:57:52;28.80;59.00
17726;DHT22;8983;53.156;17.960;2023-05-21T12:00:21;28.70;59.00
17726;DHT22;8983;53.156;17.960;2023-05-21T12:02:51;28.70;58.90
17726;DHT22;8983;53.156;17.960;2023-05-21T12:05:22;28.60;58.30
17726;DHT22;8983;53.156;17.960;2023-05-21T12:07:51;28.50;57.90
17726;DHT22;8983;53.156;17.960;2023-05-21T12:10:20;28.50;57.60
17726;DHT22;8983;53.156;17.960;2023-05-21T12:12:50;28.60;57.30
17726;DHT22;8983;53.156;17.960;2023-05-21T12:15:24;28.70;57.00
17726;DHT22;8983;53.156;17.960;2023-05-21T12:17:53;28.80;56.80
17726;DHT22;8983;53.156;17.960;2023-05-21T12:20:25;29.00;56.60
17726;DHT22;8983;53.156;17.960;2023-05-21T12:22:57;29.30;56.50
17726;DHT22;8983;53.156;17.960;2023-05-21T12:25:27;29.60;56.40
17726;DHT22;8983;53.156;17.960;2023-05-21T12:27:55;29.90;55.90
17726;DHT22;8983;53.156;17.960;2023-05-21T12:30:25;30.20;55.00
17726;DHT22;8983;53.156;17.960;2023-05-21T12:32:57;30.40;53.90
17726;DHT22;8983;53.156;17.960;2023-05-21T12:35:25;30.60;53.10
17726;DHT22;8983;53.156;17.960;2023-05-21T12:37:54;30.70;52.20
17726;DHT22;8983;53.156;17.960;2023-05-21T12:40:33;30.80;52.30
17726;DHT22;8983;53.156;17.960;2023-05-21T12:43:02;31.10;52.10
17726;DHT22;8983;53.156;17.960;2023-05-21T12:45:31;31.40;51.90
17726;DHT22;8983;53.156;17.960;2023-05-21T12:48:00;31.70;51.50
17726;DHT22;8983;53.156;17.960;2023-05-21T12:50:29;31.90;51.20
17726;DHT22;8983;53.156;17.960;2023-05-21T12:52:57;32.10;50.60
17726;DHT22;8983;53.156;17.960;2023-05-21T12:55:27;32.00;50.10
17726;DHT22;8983;53.156;17.960;2023-05-21T12:58:00;32.00;49.90
17726;DHT22;8983;53.156;17.960;2023-05-21T13:00:31;32.00;49.00
17726;DHT22;8983;53.156;17.960;2023-05-21T13:02:59;31.90;48.70
17726;DHT22;8983;53.156;17.960;2023-05-21T13:05:27;31.90;48.80
17726;DHT22;8983;53.156;17.960;2023-05-21T13:07:56;32.00;48.90
17726;DHT22;8983;53.156;17.960;2023-05-21T13:10:24;31.90;48.70
17726;DHT22;8983;53.156;17.960;2023-05-21T13:12:53;32.00;48.70
17726;DHT22;8983;53.156;17.960;2023-05-21T13:15:22;32.40;48.70
17726;DHT22;8983;53.156;17.960;2023-05-21T13:17:50;32.90;48.20
17726;DHT22;8983;53.156;17.960;2023-05-21T13:20:22;33.50;47.20
17726;DHT22;8983;53.156;17.960;2023-05-21T13:22:52;33.70;46.40
17726;DHT22;8983;53.156;17.960;2023-05-21T13:25:22;33.90;46.40
17726;DHT22;8983;53.156;17.960;2023-05-21T13:28:01;34.30;46.30
17726;DHT22;8983;53.156;17.960;2023-05-21T13:30:29;34.60;45.40
17726;DHT22;8983;53.156;17.960;2023-05-21T13:32:59;35.00;45.20
17726;DHT22;8983;53.156;17.960;2023-05-21T13:35:27;35.30;44.40
17726;DHT22;8983;53.156;17.960;2023-05-21T13:37:56;35.40;43.60
17726;DHT22;8983;53.156;17.960;2023-05-21T13:40:24;35.40;43.50
17726;DHT22;8983;53.156;17.960;2023-05-21T13:42:52;35.60;43.60
17726;DHT22;8983;53.156;17.960;2023-05-21T13:45:21;35.70;43.50
17726;DHT22;8983;53.156;17.960;2023-05-21T13:47:54;35.90;43.60
17726;DHT22;8983;53.156;17.960;2023-05-21T13:50:23;36.10;43.50
17726;DHT22;8983;53.156;17.960;2023-05-21T13:52:51;36.20;42.70
17726;DHT22;8983;53.156;17.960;2023-05-21T13:55:21;36.30;42.20
17726;DHT22;8983;53.156;17.960;2023-05-21T13:57:49;36.40;41.90
17726;DHT22;8983;53.156;17.960;2023-05-21T14:00:17;36.40;41.90
17726;DHT22;8983;53.156;17.960;2023-05-21T14:02:46;36.40;41.60
17726;DHT22;8983;53.156;17.960;2023-05-21T14:05:16;36.70;41.30
17726;DHT22;8983;53.156;17.960;2023-05-21T14:07:44;36.90;41.10
17726;DHT22;8983;53.156;17.960;2023-05-21T14:10:14;37.00;40.60
17726;DHT22;8983;53.156;17.960;2023-05-21T14:12:43;37.10;40.30
17726;DHT22;8983;53.156;17.960;2023-05-21T14:15:13;37.10;40.00
17726;DHT22;8983;53.156;17.960;2023-05-21T14:17:41;37.10;39.80
17726;DHT22;8983;53.156;17.960;2023-05-21T14:20:11;37.20;39.70
17726;DHT22;8983;53.156;17.960;2023-05-21T14:22:39;37.20;39.40
17726;DHT22;8983;53.156;17.960;2023-05-21T14:25:08;37.20;39.30
17726;DHT22;8983;53.156;17.960;2023-05-21T14:27:36;37.10;39.20
17726;DHT22;8983;53.156;17.960;2023-05-21T14:30:06;37.20;39.20
17726;DHT22;8983;53.156;17.960;2023-05-21T14:32:34;37.10;39.10
17726;DHT22;8983;53.156;17.960;2023-05-21T14:35:03;37.20;39.00
17726;DHT22;8983;53.156;17.960;2023-05-21T14:37:33;37.20;38.70
17726;DHT22;8983;53.156;17.960;2023-05-21T14:40:01;36.90;38.50
17726;DHT22;8983;53.156;17.960;2023-05-21T14:42:34;36.50;38.60
17726;DHT22;8983;53.156;17.960;2023-05-21T14:45:03;36.10;38.60
17726;DHT22;8983;53.156;17.960;2023-05-21T14:47:46;35.80;38.70
17726;DHT22;8983;53.156;17.960;2023-05-21T14:52:45;35.30;45.50
17726;DHT22;8983;53.156;17.960;2023-05-21T14:55:13;35.50;39.10
17726;DHT22;8983;53.156;17.960;2023-05-21T14:57:42;35.60;39.00
17726;DHT22;8983;53.156;17.960;2023-05-21T15:00:11;35.80;38.80
17726;DHT22;8983;53.156;17.960;2023-05-21T15:02:39;35.90;38.40
17726;DHT22;8983;53.156;17.960;2023-05-21T15:05:08;35.90;38.30
17726;DHT22;8983;53.156;17.960;2023-05-21T15:07:36;35.70;37.70
17726;DHT22;8983;53.156;17.960;2023-05-21T15:10:07;35.50;37.80
17726;DHT22;8983;53.156;17.960;2023-05-21T15:12:36;35.40;38.00
17726;DHT22;8983;53.156;17.960;2023-05-21T15:15:05;35.30;37.90
17726;DHT22;8983;53.156;17.960;2023-05-21T15:17:34;35.10;37.80
17726;DHT22;8983;53.156;17.960;2023-05-21T15:20:02;35.00;37.90
17726;DHT22;8983;53.156;17.960;2023-05-21T15:22:31;35.00;37.90
17726;DHT22;8983;53.156;17.960;2023-05-21T15:25:00;34.90;37.60
17726;DHT22;8983;53.156;17.960;2023-05-21T15:27:29;34.90;37.50
17726;DHT22;8983;53.156;17.960;2023-05-21T15:29:57;34.80;37.50
17726;DHT22;8983;53.156;17.960;2023-05-21T15:32:26;34.70;37.60
17726;DHT22;8983;53.156;17.960;2023-05-21T15:34:54;34.60;37.80
17726;DHT22;8983;53.156;17.960;2023-05-21T15:37:22;34.20;37.70
17726;DHT22;8983;53.156;17.960;2023-05-21T15:39:50;33.90;37.70
17726;DHT22;8983;53.156;17.960;2023-05-21T15:42:19;33.50;37.80
17726;DHT22;8983;53.156;17.960;2023-05-21T15:44:50;33.20;38.20
17726;DHT22;8983;53.156;17.960;2023-05-21T15:47:18;32.80;38.60
17726;DHT22;8983;53.156;17.960;2023-05-21T15:49:46;32.60;39.40